createdAt,value
2022-12-03T00:02:00.292Z,102385.34
2022-12-03T00:04:32.884Z,102387.88
2022-12-03T00:07:01.645Z,102374.25
2022-12-03T00:09:30.596Z,102375.09
2022-12-03T00:11:59.329Z,102380.22
2022-12-03T00:14:28.119Z,102384.63
2022-12-03T00:16:56.791Z,102378.53
2022-12-03T00:19:28.050Z,102367.28
2022-12-03T00:21:58.338Z,102384.56
2022-12-03T00:24:26.998Z,102373.53
2022-12-03T00:26:55.683Z,102378.69
2022-12-03T00:29:24.329Z,102374.44
2022-12-03T00:31:56.464Z,102352.81
2022-12-03T00:34:25.100Z,102369.47
2022-12-03T00:36:55.924Z,102367.56
2022-12-03T00:39:25.957Z,102362.44
2022-12-03T00:41:54.843Z,102366.00
2022-12-03T00:44:23.626Z,102364.09
2022-12-03T00:46:52.616Z,102366.94
2022-12-03T00:49:21.880Z,102362.59
2022-12-03T00:51:52.030Z,102363.34
2022-12-03T00:54:20.829Z,102362.56
2022-12-03T00:56:50.808Z,102365.91
2022-12-03T00:59:20.033Z,102355.63
2022-12-03T01:01:48.844Z,102358.28
2022-12-03T01:04:17.650Z,102363.41
2022-12-03T01:06:47.043Z,102341.91
2022-12-03T01:09:15.684Z,102349.00
2022-12-03T01:11:47.631Z,102348.91
2022-12-03T01:14:19.800Z,102344.72
2022-12-03T01:16:49.037Z,102273.97
2022-12-03T01:19:20.097Z,102340.31
2022-12-03T01:21:51.140Z,102327.44
2022-12-03T01:24:20.896Z,102345.41
2022-12-03T01:26:49.673Z,102345.50
2022-12-03T01:29:19.746Z,102339.56
2022-12-03T01:32:05.741Z,102341.38
2022-12-03T01:34:34.425Z,102343.72
2022-12-03T01:37:05.652Z,102346.16
2022-12-03T01:39:34.444Z,102331.88
2022-12-03T01:42:04.328Z,102285.25
2022-12-03T01:44:39.448Z,102330.13
2022-12-03T01:47:14.949Z,102325.94
2022-12-03T01:49:44.573Z,102331.72
2022-12-03T01:52:15.458Z,102322.56
2022-12-03T01:54:48.377Z,102321.66
2022-12-03T01:57:22.683Z,102331.81
2022-12-03T01:59:55.840Z,102323.28
2022-12-03T02:02:27.469Z,102336.09
2022-12-03T02:04:57.179Z,102330.13
2022-12-03T02:07:30.131Z,102331.88
2022-12-03T02:10:01.797Z,102312.16
2022-12-03T02:12:35.610Z,102229.31
2022-12-03T02:15:08.961Z,102330.13
2022-12-03T02:17:37.864Z,102305.91
2022-12-03T02:20:09.452Z,102322.50
2022-12-03T02:22:44.591Z,102348.97
2022-12-03T02:25:17.572Z,102326.66
2022-12-03T02:27:46.976Z,102318.28
2022-12-03T02:30:22.268Z,102325.91
2022-12-03T02:32:52.846Z,102286.97
2022-12-03T02:35:23.759Z,102321.75
2022-12-03T02:37:59.370Z,102331.06
2022-12-03T02:40:33.755Z,102116.44
2022-12-03T02:43:05.023Z,102319.22
2022-12-03T02:45:37.804Z,102318.34
2022-12-03T02:48:11.533Z,102311.47
2022-12-03T02:50:43.050Z,102311.50
2022-12-03T02:53:18.355Z,102309.00
2022-12-03T02:55:49.568Z,102303.66
2022-12-03T02:58:19.462Z,102298.50
2022-12-03T03:00:49.485Z,102301.22
2022-12-03T03:03:20.003Z,102300.31
2022-12-03T03:05:50.380Z,102303.72
2022-12-03T03:08:19.971Z,102295.97
2022-12-03T03:10:51.031Z,102293.34
2022-12-03T03:13:21.401Z,102299.44
2022-12-03T03:15:50.417Z,102293.41
2022-12-03T03:18:19.662Z,102290.88
2022-12-03T03:20:49.100Z,102288.22
2022-12-03T03:23:20.330Z,102292.50
2022-12-03T03:25:55.283Z,102295.94
2022-12-03T03:28:24.490Z,102287.50
2022-12-03T03:30:53.553Z,102287.44
2022-12-03T03:33:22.973Z,102291.69
2022-12-03T03:35:52.168Z,102237.56
2022-12-03T03:38:22.193Z,102303.63
2022-12-03T03:40:54.027Z,102256.41
2022-12-03T03:43:26.316Z,102276.25
2022-12-03T03:45:55.945Z,102287.66
2022-12-03T03:48:25.349Z,102279.81
2022-12-03T03:50:57.688Z,102276.47
2022-12-03T03:53:26.617Z,102278.13
2022-12-03T03:55:57.701Z,102276.41
2022-12-03T03:58:28.999Z,102276.56
2022-12-03T04:00:57.730Z,102280.72
2022-12-03T04:03:30.274Z,102126.41
2022-12-03T04:05:59.540Z,102275.66
2022-12-03T04:08:31.402Z,102274.84
2022-12-03T04:11:22.197Z,102262.03
2022-12-03T04:13:52.242Z,102254.44
2022-12-03T04:16:21.063Z,102260.31
2022-12-03T04:18:50.895Z,102254.50
2022-12-03T04:21:41.116Z,102244.00
2022-12-03T04:24:12.973Z,102248.44
2022-12-03T04:27:01.205Z,102253.66
2022-12-03T04:29:29.997Z,102248.28
2022-12-03T04:32:16.631Z,102246.69
2022-12-03T04:35:04.740Z,102245.75
2022-12-03T04:37:33.968Z,102244.06
2022-12-03T04:40:22.788Z,102239.81
2022-12-03T04:42:55.426Z,102240.72
2022-12-03T04:45:24.143Z,102239.06
2022-12-03T04:47:52.829Z,102234.53
2022-12-03T04:50:21.606Z,102234.91
2022-12-03T04:52:53.653Z,102192.56
2022-12-03T04:55:22.704Z,102236.41
2022-12-03T04:57:55.977Z,102233.03
2022-12-03T05:00:27.858Z,102236.28
2022-12-03T05:02:56.737Z,102227.72
2022-12-03T05:05:28.344Z,102227.91
2022-12-03T05:08:00.653Z,102228.78
2022-12-03T05:10:44.461Z,102228.81
2022-12-03T05:13:15.190Z,102232.06
2022-12-03T05:15:44.788Z,102236.47
2022-12-03T05:18:13.864Z,102217.53
2022-12-03T05:20:41.603Z,102194.22
2022-12-03T05:23:11.091Z,102174.56
2022-12-03T05:25:40.192Z,102190.84
2022-12-03T05:28:11.402Z,102223.72
2022-12-03T05:30:41.797Z,102220.19
2022-12-03T05:33:10.881Z,102222.75
2022-12-03T05:35:42.253Z,102227.00
2022-12-03T05:38:11.631Z,102225.41
2022-12-03T05:40:40.479Z,102221.16
2022-12-03T05:43:08.567Z,102240.81
2022-12-03T05:45:38.974Z,102220.19
2022-12-03T05:48:13.691Z,102215.19
2022-12-03T05:50:46.850Z,102205.69
2022-12-03T05:53:17.143Z,102226.25
2022-12-03T05:55:45.916Z,102210.03
2022-12-03T05:58:14.612Z,102206.72
2022-12-03T06:00:43.568Z,102210.16
2022-12-03T06:03:13.901Z,102201.56
2022-12-03T06:05:43.170Z,102204.00
2022-12-03T06:08:11.791Z,102205.75
2022-12-03T06:10:41.924Z,102192.91
2022-12-03T06:13:11.023Z,102184.28
2022-12-03T06:15:43.685Z,102198.06
2022-12-03T06:18:15.965Z,102021.53
2022-12-03T06:20:44.671Z,102189.47
2022-12-03T06:23:13.353Z,102191.16
2022-12-03T06:25:44.496Z,102187.75
2022-12-03T06:28:16.817Z,102184.22
2022-12-03T06:30:45.640Z,102175.66
2022-12-03T06:33:15.896Z,102180.88
2022-12-03T06:35:44.530Z,102186.78
2022-12-03T06:38:13.377Z,101996.75
2022-12-03T06:41:11.027Z,102186.84
2022-12-03T06:43:40.362Z,102127.44
2022-12-03T06:46:12.629Z,102181.72
2022-12-03T06:48:43.163Z,102177.41
2022-12-03T06:51:12.588Z,102133.47
2022-12-03T06:53:43.964Z,102173.06
2022-12-03T06:56:14.058Z,102165.34
2022-12-03T06:58:43.838Z,102176.69
2022-12-03T07:01:13.491Z,102179.22
2022-12-03T07:03:44.386Z,102178.31
2022-12-03T07:06:14.300Z,102141.31
2022-12-03T07:08:46.080Z,102187.81
2022-12-03T07:11:29.743Z,102164.28
2022-12-03T07:14:04.709Z,102174.75
2022-12-03T07:16:35.978Z,102191.94
2022-12-03T07:19:08.293Z,102176.50
2022-12-03T07:21:38.403Z,102193.53
2022-12-03T07:24:09.850Z,102182.47
2022-12-03T07:26:38.797Z,102187.53
2022-12-03T07:29:09.935Z,102202.28
2022-12-03T07:31:38.803Z,102180.81
2022-12-03T07:34:09.163Z,102200.41
2022-12-03T07:36:40.379Z,102178.81
2022-12-03T07:39:13.898Z,102194.44
2022-12-03T07:41:46.145Z,102194.63
2022-12-03T07:44:15.078Z,102167.88
2022-12-03T07:46:44.307Z,102192.00
2022-12-03T07:49:17.512Z,102197.97
2022-12-03T07:51:53.610Z,102202.28
2022-12-03T07:54:22.858Z,102201.34
2022-12-03T07:57:00.901Z,102187.69
2022-12-03T07:59:30.744Z,102193.66
2022-12-03T08:02:02.693Z,102185.91
2022-12-03T08:04:36.215Z,102157.50
2022-12-03T08:07:06.324Z,102190.28
2022-12-03T08:09:35.640Z,102192.94
2022-12-03T08:12:16.185Z,102174.81
2022-12-03T08:14:45.310Z,102190.25
2022-12-03T08:17:17.942Z,102128.44
2022-12-03T08:19:50.545Z,102183.34
2022-12-03T08:22:22.325Z,102162.00
2022-12-03T08:24:51.225Z,102185.97
2022-12-03T08:27:20.905Z,102180.75
2022-12-03T08:30:01.155Z,102187.31
2022-12-03T08:32:32.331Z,102189.19
2022-12-03T08:35:03.417Z,102174.75
2022-12-03T08:37:37.240Z,102181.63
2022-12-03T08:40:21.310Z,102186.72
2022-12-03T08:42:49.943Z,102176.41
2022-12-03T08:45:40.688Z,102171.22
2022-12-03T08:48:26.622Z,102167.84
2022-12-03T08:51:01.689Z,102172.97
2022-12-03T08:53:33.261Z,102170.44
2022-12-03T08:56:03.208Z,102175.50
2022-12-03T08:58:38.036Z,102164.56
2022-12-03T09:01:28.496Z,102155.03
2022-12-03T09:04:16.409Z,102145.59
2022-12-03T09:06:46.769Z,102168.63
2022-12-03T09:09:15.404Z,102153.19
2022-12-03T09:11:44.983Z,102160.97
2022-12-03T09:14:18.452Z,102167.75
2022-12-03T09:16:48.217Z,102166.88
2022-12-03T09:19:19.752Z,102160.78
2022-12-03T09:21:50.210Z,102172.88
2022-12-03T09:24:19.197Z,102132.50
2022-12-03T09:26:51.117Z,102167.69
2022-12-03T09:29:22.259Z,102172.03
2022-12-03T09:31:53.478Z,102167.06
2022-12-03T09:34:23.690Z,102162.69
2022-12-03T09:36:53.733Z,102144.72
2022-12-03T09:39:22.410Z,102162.69
2022-12-03T09:41:51.651Z,102169.53
2022-12-03T09:44:20.836Z,102171.19
2022-12-03T09:46:52.076Z,102172.06
2022-12-03T09:49:22.169Z,102179.78
2022-12-03T09:51:57.747Z,102168.78
2022-12-03T09:54:28.821Z,102139.47
2022-12-03T09:57:00.384Z,102176.53
2022-12-03T09:59:33.421Z,102114.66
2022-12-03T10:02:03.186Z,102167.91
2022-12-03T10:04:34.313Z,102163.72
2022-12-03T10:07:04.421Z,102168.00
2022-12-03T10:09:33.664Z,102154.97
2022-12-03T10:12:02.560Z,102176.50
2022-12-03T10:14:31.536Z,102168.03
2022-12-03T10:17:00.805Z,102163.78
2022-12-03T10:19:35.497Z,102163.63
2022-12-03T10:22:05.593Z,102165.38
2022-12-03T10:24:38.221Z,102160.19
2022-12-03T10:27:22.459Z,102167.97
2022-12-03T10:29:58.665Z,102162.69
2022-12-03T10:32:40.376Z,102156.63
2022-12-03T10:35:12.501Z,102150.88
2022-12-03T10:37:59.178Z,102150.03
2022-12-03T10:40:31.908Z,102147.31
2022-12-03T10:43:21.491Z,102145.66
2022-12-03T10:46:20.040Z,102143.78
2022-12-03T10:49:11.262Z,102137.06
2022-12-03T10:51:40.919Z,102129.41
2022-12-03T10:54:18.048Z,102120.88
2022-12-03T10:56:48.833Z,102077.69
2022-12-03T10:59:21.992Z,102124.16
2022-12-03T11:01:52.109Z,102121.50
2022-12-03T11:04:30.391Z,102094.72
2022-12-03T11:07:00.499Z,102119.72
2022-12-03T11:09:33.276Z,102103.44
2022-12-03T11:12:06.457Z,102069.75
2022-12-03T11:15:06.729Z,101916.88
2022-12-03T11:17:47.211Z,102117.72
2022-12-03T11:21:08.316Z,102101.06
2022-12-03T11:24:05.445Z,102102.59
2022-12-03T11:27:17.331Z,102093.97
2022-12-03T11:30:14.791Z,102098.38
2022-12-03T11:33:06.472Z,102090.78
2022-12-03T11:36:07.962Z,102086.47
2022-12-03T11:38:53.316Z,102074.47
2022-12-03T11:41:27.243Z,102065.88
2022-12-03T11:44:31.731Z,102089.03
2022-12-03T11:47:19.862Z,102082.22
2022-12-03T11:49:53.490Z,102071.78
2022-12-03T11:52:34.322Z,102044.28
2022-12-03T11:55:14.866Z,102080.19
2022-12-03T11:57:44.453Z,102059.69
2022-12-03T12:00:24.397Z,102064.00
2022-12-03T12:02:58.332Z,102067.59
2022-12-03T12:05:32.499Z,102063.25
2022-12-03T12:08:04.585Z,102062.50
2022-12-03T12:10:45.926Z,102062.44
2022-12-03T12:13:54.602Z,102048.63
2022-12-03T12:16:42.447Z,102054.03
2022-12-03T12:19:39.999Z,102052.06
2022-12-03T12:22:17.545Z,102042.53
2022-12-03T12:24:51.581Z,102045.31
2022-12-03T12:27:22.784Z,102043.63
2022-12-03T12:30:22.058Z,102034.16
2022-12-03T12:33:09.246Z,102030.84
2022-12-03T12:35:42.463Z,102030.69
2022-12-03T12:38:17.938Z,101766.41
2022-12-03T12:40:50.699Z,101928.50
2022-12-03T12:43:26.600Z,102018.75
2022-12-03T12:46:13.824Z,101982.50
2022-12-03T12:48:59.351Z,101999.72
2022-12-03T12:51:30.881Z,102022.16
2022-12-03T12:54:00.464Z,101991.94
2022-12-03T12:56:32.711Z,102038.47
2022-12-03T12:59:12.400Z,102020.50
2022-12-03T13:01:43.608Z,101987.97
2022-12-03T13:04:14.609Z,102010.25
2022-12-03T13:06:46.175Z,102021.38
2022-12-03T13:09:19.155Z,102020.44
2022-12-03T13:11:53.011Z,102008.38
2022-12-03T13:14:23.940Z,102017.00
2022-12-03T13:16:55.627Z,102011.97
2022-12-03T13:19:28.987Z,102023.69
2022-12-03T13:22:11.403Z,102003.06
2022-12-03T13:24:45.604Z,102004.72
2022-12-03T13:27:26.626Z,102008.13
2022-12-03T13:30:00.149Z,102014.00
2022-12-03T13:32:34.612Z,102004.88
2022-12-03T13:35:08.206Z,101995.16
2022-12-03T13:37:39.325Z,102007.16
2022-12-03T13:40:21.834Z,102011.63
2022-12-03T13:42:54.309Z,102012.34
2022-12-03T13:45:32.659Z,102007.31
2022-12-03T13:48:14.722Z,102008.13
2022-12-03T13:50:46.219Z,102003.69
2022-12-03T13:53:22.674Z,101996.13
2022-12-03T13:55:55.002Z,101949.00
2022-12-03T13:58:23.903Z,101988.38
2022-12-03T14:00:53.513Z,101985.78
2022-12-03T14:03:23.457Z,101979.84
2022-12-03T14:05:55.112Z,101974.63
2022-12-03T14:08:25.632Z,101976.41
2022-12-03T14:11:00.340Z,101970.59
2022-12-03T14:13:29.634Z,101982.22
2022-12-03T14:16:00.833Z,101796.22
2022-12-03T14:18:30.071Z,101966.50
2022-12-03T14:20:58.988Z,101973.19
2022-12-03T14:23:29.603Z,101970.56
2022-12-03T14:25:58.282Z,101951.53
2022-12-03T14:28:26.909Z,101954.91
2022-12-03T14:30:55.922Z,101935.19
2022-12-03T14:33:24.613Z,101955.75
2022-12-03T14:35:56.322Z,101952.22
2022-12-03T14:38:29.180Z,101957.47
2022-12-03T14:40:58.432Z,101954.00
2022-12-03T14:43:30.200Z,101953.97
2022-12-03T14:45:58.907Z,101748.72
2022-12-03T14:48:28.208Z,101953.22
2022-12-03T14:50:57.135Z,101961.88
2022-12-03T14:53:27.612Z,101948.03
2022-12-03T14:56:02.490Z,101957.53
2022-12-03T14:58:31.277Z,101960.91
2022-12-03T15:01:02.536Z,101946.31
2022-12-03T15:03:31.596Z,101965.22
2022-12-03T15:06:01.566Z,101950.84
2022-12-03T15:08:30.723Z,101963.66
2022-12-03T15:10:59.498Z,101963.66
2022-12-03T15:13:30.096Z,101960.19
2022-12-03T15:15:58.803Z,101972.97
2022-12-03T15:18:27.516Z,101960.16
2022-12-03T15:20:57.426Z,101791.75
2022-12-03T15:23:29.334Z,101965.22
2022-12-03T15:25:58.456Z,101972.13
2022-12-03T15:28:31.384Z,101972.09
2022-12-03T15:31:00.213Z,101964.34
2022-12-03T15:33:29.028Z,101965.22
2022-12-03T15:35:59.821Z,101949.53
2022-12-03T15:38:31.099Z,101975.25
2022-12-03T15:41:20.702Z,101971.16
2022-12-03T15:43:52.128Z,101961.75
2022-12-03T15:46:21.695Z,101976.47
2022-12-03T15:48:50.789Z,101738.41
2022-12-03T15:51:19.798Z,101966.88
2022-12-03T15:53:48.522Z,101970.16
2022-12-03T15:56:19.928Z,101965.00
2022-12-03T15:58:50.284Z,101962.75
2022-12-03T16:01:22.035Z,101964.38
2022-12-03T16:03:51.902Z,101955.75
2022-12-03T16:06:24.207Z,101973.59
2022-12-03T16:08:52.946Z,101970.13
2022-12-03T16:11:21.887Z,101965.09
2022-12-03T16:13:52.069Z,101967.69
2022-12-03T16:16:20.757Z,101964.94
2022-12-03T16:18:50.012Z,101966.63
2022-12-03T16:21:23.396Z,101963.13
2022-12-03T16:23:55.281Z,101962.38
2022-12-03T16:26:24.025Z,101953.75
2022-12-03T16:28:54.029Z,101954.56
2022-12-03T16:31:25.194Z,101962.16
2022-12-03T16:33:54.802Z,101947.78
2022-12-03T16:36:23.509Z,101938.28
2022-12-03T16:38:52.533Z,101946.16
2022-12-03T16:41:22.431Z,101941.22
2022-12-03T16:44:01.479Z,101940.84
2022-12-03T16:46:33.639Z,101953.81
2022-12-03T16:49:03.798Z,101925.63
2022-12-03T16:51:35.521Z,101947.81
2022-12-03T16:54:06.613Z,101941.84
2022-12-03T16:56:35.677Z,101946.16
2022-12-03T16:59:08.430Z,101944.31
2022-12-03T17:01:39.654Z,101952.88
2022-12-03T17:04:08.391Z,101925.69
2022-12-03T17:06:37.096Z,101951.34
2022-12-03T17:09:06.131Z,101932.34
2022-12-03T17:11:36.934Z,101952.25
2022-12-03T17:14:06.950Z,101946.22
2022-12-03T17:16:35.653Z,101936.56
2022-12-03T17:19:06.521Z,101956.28
2022-12-03T17:21:39.120Z,101956.22
2022-12-03T17:24:10.936Z,101958.88
2022-12-03T17:26:41.881Z,101956.28
2022-12-03T17:29:12.475Z,101966.41
2022-12-03T17:31:44.246Z,101953.66
2022-12-03T17:34:12.981Z,101962.97
2022-12-03T17:36:41.623Z,101960.47
2022-12-03T17:39:11.538Z,101953.84
2022-12-03T17:41:40.226Z,101954.59
2022-12-03T17:44:11.340Z,101954.09
2022-12-03T17:46:43.150Z,101952.09
2022-12-03T17:49:11.964Z,101955.44
2022-12-03T17:51:43.393Z,101952.88
2022-12-03T17:54:15.196Z,101952.09
2022-12-03T17:56:44.101Z,101957.25
2022-12-03T17:59:20.453Z,101941.16
2022-12-03T18:01:50.644Z,101937.78
2022-12-03T18:04:48.245Z,101942.84
2022-12-03T18:07:18.454Z,101896.47
2022-12-03T18:09:50.284Z,101933.34
2022-12-03T18:12:19.936Z,101964.63
2022-12-03T18:14:49.366Z,101927.16
2022-12-03T18:17:19.986Z,101925.34
2022-12-03T18:19:49.362Z,101917.56
2022-12-03T18:22:19.369Z,101917.72
2022-12-03T18:24:51.981Z,101899.53
2022-12-03T18:27:21.990Z,101912.56
2022-12-03T18:29:54.237Z,101903.16
2022-12-03T18:32:29.622Z,101919.91
2022-12-03T18:35:00.276Z,101911.84
2022-12-03T18:37:31.211Z,101903.81
2022-12-03T18:40:02.043Z,101921.84
2022-12-03T18:42:32.551Z,101913.25
2022-12-03T18:45:02.709Z,101905.44
2022-12-03T18:47:33.414Z,101914.19
2022-12-03T18:50:03.017Z,101906.59
2022-12-03T18:52:31.757Z,101909.97
2022-12-03T18:55:00.416Z,101859.16
2022-12-03T18:57:29.093Z,101913.38
2022-12-03T18:59:58.059Z,101875.56
2022-12-03T19:05:19.921Z,101912.50
2022-12-03T19:07:53.872Z,101907.47
2022-12-03T19:10:25.403Z,101915.81
2022-12-03T19:12:56.592Z,101910.81
2022-12-03T19:15:25.424Z,101922.66
2022-12-03T19:17:54.096Z,101918.44
2022-12-03T19:20:24.393Z,101749.84
2022-12-03T19:22:53.012Z,101911.69
2022-12-03T19:25:24.324Z,101922.63
2022-12-03T19:27:55.142Z,101917.50
2022-12-03T19:30:23.977Z,101920.94
2022-12-03T19:32:52.858Z,101920.94
2022-12-03T19:35:22.419Z,101925.94
2022-12-03T19:37:52.518Z,101899.38
2022-12-03T19:40:21.451Z,101913.38
2022-12-03T19:42:50.318Z,101907.97
2022-12-03T19:45:21.393Z,101918.34
2022-12-03T19:47:50.046Z,101893.50
2022-12-03T19:50:23.080Z,101914.78
2022-12-03T19:52:53.752Z,101889.03
2022-12-03T19:55:22.403Z,101913.91
2022-12-03T19:57:51.126Z,101904.63
2022-12-03T20:00:20.059Z,101907.13
2022-12-03T20:02:50.881Z,101888.53
2022-12-03T20:05:21.499Z,101897.75
2022-12-03T20:07:50.506Z,101900.25
2022-12-03T20:10:21.346Z,101902.88
2022-12-03T20:12:49.984Z,101757.56
2022-12-03T20:15:21.161Z,101908.00
2022-12-03T20:17:50.269Z,101897.75
2022-12-03T20:20:19.106Z,101909.66
2022-12-03T20:22:47.881Z,101910.38
2022-12-03T20:25:16.580Z,101906.91
2022-12-03T20:27:46.892Z,101891.00
2022-12-03T20:30:15.736Z,101894.19
2022-12-03T20:32:47.163Z,101896.78
2022-12-03T20:35:17.089Z,101894.19
2022-12-03T20:38:06.740Z,101892.56
2022-12-03T20:40:55.423Z,101885.66
2022-12-03T20:43:26.468Z,101885.53
2022-12-03T20:46:01.065Z,101889.88
2022-12-03T20:48:33.924Z,101879.75
2022-12-03T20:51:04.715Z,101866.88
2022-12-03T20:53:34.257Z,101875.19
2022-12-03T20:56:07.579Z,101749.03
2022-12-03T20:58:57.912Z,101876.13
2022-12-03T21:01:50.289Z,101829.88
2022-12-03T21:04:39.775Z,101870.09
2022-12-03T21:07:34.633Z,101873.53
2022-12-03T21:10:45.799Z,101868.50
2022-12-03T21:13:15.713Z,101871.03
2022-12-03T21:15:46.879Z,101853.75
2022-12-03T21:18:35.872Z,101876.97
2022-12-03T21:21:30.348Z,101865.06
2022-12-03T21:24:08.711Z,101864.19
2022-12-03T21:27:00.467Z,101854.03
2022-12-03T21:29:29.465Z,101854.75
2022-12-03T21:31:59.640Z,101853.06
2022-12-03T21:34:35.589Z,101855.78
2022-12-03T21:37:05.936Z,101849.75
2022-12-03T21:39:37.356Z,101853.22
2022-12-03T21:42:34.275Z,101854.84
2022-12-03T21:44:54.776Z,101862.31
2022-12-03T21:47:25.399Z,101859.72
2022-12-03T21:49:54.661Z,101859.88
2022-12-03T21:52:23.572Z,101868.44
2022-12-03T21:54:53.495Z,101863.28
2022-12-03T21:57:22.458Z,101851.16
2022-12-03T21:59:51.714Z,101860.78
2022-12-03T22:02:20.614Z,101863.47
2022-12-03T22:04:52.179Z,101860.88
2022-12-03T22:07:22.452Z,101860.78
2022-12-03T22:09:51.872Z,101849.84
2022-12-03T22:12:22.821Z,101849.75
2022-12-03T22:14:53.822Z,101855.56
2022-12-03T22:17:24.725Z,101859.72
2022-12-03T22:19:56.242Z,101851.31
2022-12-03T22:22:25.278Z,101839.16
2022-12-03T22:24:53.969Z,101849.78
2022-12-03T22:27:22.898Z,101855.78
2022-12-03T22:29:51.626Z,101868.44
2022-12-03T22:32:20.943Z,101852.97
2022-12-03T22:34:52.172Z,101891.41
2022-12-03T22:37:24.893Z,101858.13
2022-12-03T22:39:59.882Z,101867.44
2022-12-03T22:42:31.190Z,101858.19
2022-12-03T22:45:02.102Z,101858.09
2022-12-03T22:47:30.789Z,101858.13
2022-12-03T22:50:01.470Z,101854.84
2022-12-03T22:52:31.870Z,101856.47
2022-12-03T22:55:00.538Z,101737.84
2022-12-03T22:57:32.376Z,101860.63
2022-12-03T23:00:01.313Z,101856.56
2022-12-03T23:02:30.518Z,101853.13
2022-12-03T23:04:59.211Z,101855.50
2022-12-03T23:07:27.930Z,101836.69
2022-12-03T23:09:58.336Z,101842.03
2022-12-03T23:12:27.100Z,101845.41
2022-12-03T23:14:56.257Z,101835.09
2022-12-03T23:17:24.974Z,101835.00
2022-12-03T23:19:53.980Z,101835.09
2022-12-03T23:22:23.124Z,101801.72
2022-12-03T23:24:51.948Z,101825.72
2022-12-03T23:27:24.334Z,101763.81
2022-12-03T23:29:53.313Z,101830.84
2022-12-03T23:32:23.716Z,101835.13
2022-12-03T23:34:54.559Z,101829.13
2022-12-03T23:37:23.716Z,101823.97
2022-12-03T23:39:52.763Z,101819.47
2022-12-03T23:42:25.632Z,101827.88
2022-12-03T23:44:54.826Z,101836.66
2022-12-03T23:47:30.367Z,101825.72
2022-12-03T23:49:59.321Z,101825.69
2022-12-03T23:52:28.485Z,101823.94
2022-12-03T23:54:57.182Z,101729.19
2022-12-03T23:57:27.812Z,101836.75
2022-12-03T23:59:56.861Z,101834.09
